Diona, Illinois
Current Conditions -  °F | °C
As of 9:53 AM on Sunday 21 Dec 2014 (Local Time) from KMTO Reporting Station
Haze Haze  
Wind Chill: 26°   Ceiling: 2500
Heat Index: 32°   Visibility: 6mi
Dew Point: 26°   Wind: 7mph
Humidity: 79%   Direction: 150°SSE
Pressure: 30.24"   Gusts: NA
Location:  39.2272°N, 88.1132°W
Report Text: KMTO 211553Z AUTO 15006KT 6SM HZ OVC025 00/M03 A3024 RMK AO2 SLP247 T00001033
Loading
Personal Weather Stations






























Interactive Weather Map New forecast layout! Learn more

10-Day Weather Forecast

Advertisements
Track Severe Weather on mobile